Time;durP1;ratioP1;P1;durP2;ratioP2;P2;SDS_P1;SDS_P2;PMS_P1;PMS_P2;Temp;Humidity;BMP_temperature;BMP_pressure;BME280_temperature;BME280_humidity;BME280_pressure;Samples;Min_cycle;Max_cycle;Signal;HPM_P1;HPM_P2
2022/05/11 00:02:59;;;;;;;17.15;9.73;;;;;;;14.23;56.76;100250.56;1969556;89;29454;-67
2022/05/11 00:06:04;;;;;;;19.50;10.00;;;;;;;14.20;57.11;100249.41;1947657;91;27738;-67
2022/05/11 00:09:08;;;;;;;;;;;;;;;14.18;57.13;100251.34;1998209;89;29191;-66
2022/05/11 00:12:11;;;;;;;18.12;8.28;;;;;;;14.15;57.30;100246.64;1995869;89;31881;-66
2022/05/11 00:15:17;;;;;;;16.25;9.10;;;;;;;14.09;57.32;100243.87;2019798;88;33004;-64
2022/05/11 00:18:19;;;;;;;13.53;9.05;;;;;;;14.04;57.43;100245.53;2020488;87;29379;-65
2022/05/11 00:21:22;;;;;;;17.75;8.65;;;;;;;13.97;57.37;100241.03;2020461;87;27505;-66
2022/05/11 00:24:26;;;;;;;10.95;7.95;;;;;;;13.94;57.66;100238.99;1936545;90;28654;-65
2022/05/11 00:27:28;;;;;;;16.27;9.45;;;;;;;13.89;57.68;100235.26;1995997;89;30974;-66
2022/05/11 00:30:31;;;;;;;19.07;9.05;;;;;;;13.86;57.87;100231.41;1995810;89;33808;-66
2022/05/11 00:33:33;;;;;;;14.85;9.73;;;;;;;13.82;58.01;100230.75;2005126;88;30276;-65
2022/05/11 00:36:36;;;;;;;18.40;10.32;;;;;;;13.79;58.27;100230.09;2020247;87;27735;-65
2022/05/11 00:39:38;;;;;;;13.78;10.32;;;;;;;13.77;58.59;100229.33;2020662;87;29115;-66
2022/05/11 00:42:40;;;;;;;14.95;9.63;;;;;;;13.77;58.80;100223.45;2017900;87;32131;-66
2022/05/11 00:45:48;;;;;;;15.83;9.98;;;;;;;13.78;58.67;100217.09;1995940;88;32995;-66
2022/05/11 00:52:25;;;;;;;18.15;10.72;;;;;;;13.78;58.90;100217.59;1995919;89;36753;-66
2022/05/11 00:55:32;;;;;;;16.25;9.93;;;;;;;13.77;59.03;100216.71;1946793;89;29525;-66
2022/05/11 00:58:42;;;;;;;13.50;9.40;;;;;;;13.76;59.09;100208.75;1941783;91;31076;-65
2022/05/11 01:01:44;;;;;;;15.15;10.55;;;;;;;13.76;59.14;100209.59;1941750;91;32969;-66
2022/05/11 01:04:47;;;;;;;18.02;9.63;;;;;;;13.77;59.32;100209.13;1966706;90;29223;-66
2022/05/11 01:07:52;;;;;;;18.40;10.85;;;;;;;13.76;59.31;100208.25;1973938;90;27637;-67
2022/05/11 01:10:54;;;;;;;16.55;11.68;;;;;;;13.76;59.37;100205.55;1973967;89;28735;-66
2022/05/11 01:13:57;;;;;;;19.37;12.50;;;;;;;13.76;59.61;100208.25;1973724;89;31942;-66
2022/05/11 01:17:00;;;;;;;17.57;11.33;;;;;;;13.75;59.60;100207.87;1973554;90;35155;-66
2022/05/11 01:20:10;;;;;;;15.50;11.50;;;;;;;13.74;59.71;100211.52;1973895;89;30474;-66
2022/05/11 01:23:48;;;;;;;16.45;12.07;;;;;;;13.73;59.72;100204.44;1974017;89;27621;-66
2022/05/11 01:26:50;;;;;;;21.20;12.98;;;;;;;13.71;59.93;100202.32;1974227;89;29673;-67
2022/05/11 01:29:54;;;;;;;20.20;13.18;;;;;;;13.70;60.16;100196.55;1935962;92;32291;-67
2022/05/11 01:32:57;;;;;;;21.85;12.80;;;;;;;13.69;60.01;100190.78;1973758;89;33032;-67
2022/05/11 01:36:13;;;;;;;19.65;14.38;;;;;;;13.69;60.21;100188.09;1973618;89;29392;-66
2022/05/11 01:39:15;;;;;;;18.55;13.53;;;;;;;13.71;60.28;100190.67;1973771;89;27725;-66
2022/05/11 01:42:19;;;;;;;21.82;13.85;;;;;;;13.68;60.54;100187.70;1973721;90;28741;-66
2022/05/11 01:45:22;;;;;;;19.77;13.70;;;;;;;13.68;60.45;100185.86;1973669;90;31093;-66
2022/05/11 01:48:24;;;;;;;20.92;13.85;;;;;;;13.71;60.49;100182.59;1936240;92;32994;-65
2022/05/11 01:51:27;;;;;;;19.65;14.05;;;;;;;13.73;60.51;100179.33;1973888;90;29465;-65
2022/05/11 01:54:29;;;;;;;23.20;13.70;;;;;;;13.73;60.69;100180.67;1984631;88;27665;-65
2022/05/11 01:57:31;;;;;;;22.37;15.18;;;;;;;13.73;60.71;100174.82;2008820;88;30247;-65
2022/05/11 02:00:38;;;;;;;17.52;12.25;;;;;;;13.74;60.81;100171.13;1973201;89;32340;-65
2022/05/11 02:03:40;;;;;;;23.10;12.95;;;;;;;13.76;60.83;100171.91;1963389;90;33784;-66
2022/05/11 02:10:05;;;;;;;20.52;13.88;;;;;;;13.78;60.99;100168.63;1942747;91;27787;-66
2022/05/11 02:13:08;;;;;;;19.27;12.82;;;;;;;13.78;61.09;100157.86;1947021;90;28331;-66
2022/05/11 02:16:12;;;;;;;16.85;13.70;;;;;;;13.73;61.04;100148.36;1973473;90;30959;-65
2022/05/11 02:19:14;;;;;;;15.70;11.97;;;;;;;13.79;61.07;100151.52;1973343;89;33677;-65
2022/05/11 02:22:17;;;;;;;16.25;12.90;;;;;;;13.80;61.06;100148.36;1973541;90;29958;-65
2022/05/11 02:25:20;;;;;;;19.10;12.45;;;;;;;13.81;61.10;100146.05;1947636;90;27682;-64
2022/05/11 02:28:23;;;;;;;18.45;12.60;;;;;;;13.80;61.02;100147.86;1942902;91;29515;-65
2022/05/11 02:31:30;;;;;;;21.45;14.13;;;;;;;13.79;61.24;100144.78;1942797;91;31926;-65
2022/05/11 02:37:59;;;;;;;20.57;12.75;;;;;;;13.75;61.17;100147.78;1973327;89;30512;-65
2022/05/11 02:41:02;;;;;;;16.80;12.10;;;;;;;13.71;61.20;100143.56;1973430;90;27738;-65
2022/05/11 02:44:06;;;;;;;21.85;13.03;;;;;;;13.66;61.16;100146.06;1960504;89;29509;-65
2022/05/11 02:47:09;;;;;;;16.00;12.63;;;;;;;13.61;61.10;100142.83;1942762;91;31872;-65
2022/05/11 02:50:16;;;;;;;18.07;12.30;;;;;;;13.56;61.22;100140.91;1942711;91;33740;-65
2022/05/11 02:53:19;;;;;;;19.20;12.28;;;;;;;13.52;61.37;100138.91;1947046;90;29453;-65
2022/05/11 02:56:24;;;;;;;17.95;12.30;;;;;;;13.50;61.47;100138.59;1972815;89;27792;-65
2022/05/11 02:59:26;;;;;;;18.05;12.28;;;;;;;13.47;61.58;100139.67;1973513;89;28205;-66
2022/05/11 03:02:30;;;;;;;18.27;10.75;;;;;;;13.45;61.67;100141.59;1973344;89;31911;-65
2022/05/11 03:05:34;;;;;;;21.42;13.35;;;;;;;13.44;61.88;100146.59;1973135;89;33784;-66
2022/05/11 03:08:38;;;;;;;21.90;12.88;;;;;;;13.43;61.99;100144.02;1969481;90;29999;-66
2022/05/11 03:11:40;;;;;;;20.95;14.00;;;;;;;13.43;62.09;100151.59;1969555;90;27676;-66
2022/05/11 03:14:43;;;;;;;17.75;12.75;;;;;;;13.44;62.19;100155.16;1959937;90;29520;-66
2022/05/11 03:17:45;;;;;;;22.07;14.38;;;;;;;13.45;62.30;100148.81;1973213;90;31132;-65
2022/05/11 03:20:47;;;;;;;21.87;13.65;;;;;;;13.44;62.35;100147.09;1973492;90;33126;-66
2022/05/11 03:23:49;;;;;;;21.80;13.00;;;;;;;13.43;62.41;100146.70;1973315;89;29762;-66
2022/05/11 03:26:51;;;;;;;17.85;12.78;;;;;;;13.42;62.48;100143.62;1969692;90;28097;-65
2022/05/11 03:29:54;;;;;;;21.68;13.03;;;;;;;13.43;62.51;100147.55;1969858;90;29913;-65
2022/05/11 03:36:16;;;;;;;20.48;12.68;;;;;;;13.50;62.62;100142.64;1923378;92;33694;-65
2022/05/11 03:39:20;;;;;;;17.37;12.65;;;;;;;13.55;62.67;100140.52;1942495;91;30541;-68
2022/05/11 03:42:28;;;;;;;19.27;12.93;;;;;;;13.59;62.68;100139.37;1942652;91;27667;-67
2022/05/11 03:45:27;;;;;;;18.48;12.93;;;;;;;13.66;62.68;100143.86;1967721;90;28682;-65
2022/05/11 03:48:31;;;;;;;24.25;13.22;;;;;;;13.72;62.73;100143.48;1972959;90;31035;-66
2022/05/11 03:51:37;;;;;;;14.87;13.03;;;;;;;13.78;62.81;100137.67;1972770;89;34236;-66
2022/05/11 03:54:39;;;;;;;23.07;12.70;;;;;;;13.87;62.79;100140.23;1970314;90;29197;-66
2022/05/11 03:57:43;;;;;;;25.12;13.70;;;;;;;13.93;62.67;100143.88;1979351;89;27709;-66
2022/05/11 04:00:46;;;;;;;17.75;12.70;;;;;;;13.97;62.60;100146.76;1979165;89;30053;-66
2022/05/11 04:03:48;;;;;;;14.47;12.00;;;;;;;14.01;62.55;100144.72;1977487;89;31505;-66
2022/05/11 04:06:51;;;;;;;23.27;13.05;;;;;;;14.02;62.60;100147.80;1971114;90;33814;-66
2022/05/11 04:09:53;;;;;;;17.75;12.28;;;;;;;14.04;62.50;100144.52;1971259;90;30161;-67
2022/05/11 04:12:56;;;;;;;22.40;13.65;;;;;;;14.06;62.55;100145.28;1971264;90;28017;-66
2022/05/11 04:15:59;;;;;;;19.42;13.05;;;;;;;14.06;62.48;100142.59;1978725;90;29504;-66
2022/05/11 04:19:01;;;;;;;18.60;13.75;;;;;;;14.09;62.50;100146.41;1979333;90;31554;-67
2022/05/11 04:22:05;;;;;;;23.47;14.58;;;;;;;14.13;62.49;100146.58;1979531;89;33677;-67
2022/05/11 04:25:10;;;;;;;18.75;14.43;;;;;;;14.17;62.55;100139.15;1974084;89;30016;-67
2022/05/11 04:28:13;;;;;;;22.85;14.75;;;;;;;14.23;62.53;100137.90;1971302;90;28243;-67
2022/05/11 04:31:16;;;;;;;24.23;14.50;;;;;;;14.33;62.55;100140.33;1971559;90;29396;-66
2022/05/11 04:34:18;;;;;;;19.02;13.30;;;;;;;14.46;62.60;100149.80;1978528;90;31137;-66
2022/05/11 04:37:20;;;;;;;23.62;14.90;;;;;;;14.60;62.45;100148.83;1979123;89;34235;-66
2022/05/11 04:40:23;;;;;;;23.85;15.48;;;;;;;14.78;62.38;100148.09;1979403;89;30142;-65
2022/05/11 04:43:26;;;;;;;19.23;12.98;;;;;;;14.99;62.25;100150.22;1974383;89;27731;-66
2022/05/11 04:46:28;;;;;;;19.02;13.22;;;;;;;15.52;62.39;100139.73;1971490;89;28763;-66
2022/05/11 04:49:31;;;;;;;21.57;13.45;;;;;;;16.48;62.28;100131.25;1971141;90;32286;-66
2022/05/11 04:52:34;;;;;;;21.40;11.80;;;;;;;17.41;61.40;100131.63;1973657;90;34024;-66
2022/05/11 04:55:36;;;;;;;25.35;12.10;;;;;;;18.37;60.52;100125.58;1988056;88;29598;-67
2022/05/11 04:58:39;;;;;;;22.13;11.73;;;;;;;19.53;59.42;100130.92;2008841;88;27763;-68
2022/05/11 05:01:42;;;;;;;19.40;10.38;;;;;;;20.57;57.98;100126.87;2008285;88;29524;-68
2022/05/11 05:04:44;;;;;;;17.30;9.83;;;;;;;21.51;56.56;100130.09;1922273;91;31333;-68
2022/05/11 05:07:46;;;;;;;18.67;9.90;;;;;;;22.32;55.36;100135.73;1931405;92;34352;-68
2022/05/11 05:10:49;;;;;;;17.02;9.00;;;;;;;23.09;53.82;100135.63;1977062;90;31468;-68
2022/05/11 05:13:51;;;;;;;18.35;8.88;;;;;;;23.64;52.14;100146.70;2000639;88;27629;-68
2022/05/11 05:16:53;;;;;;;14.00;8.25;;;;;;;24.13;51.19;100144.61;2008893;88;30028;-67
2022/05/11 05:19:55;;;;;;;18.45;9.10;;;;;;;24.58;50.33;100145.16;1973284;89;31823;-68
2022/05/11 05:22:57;;;;;;;13.85;8.40;;;;;;;25.01;49.74;100146.34;1967192;89;33912;-68
2022/05/11 05:26:00;;;;;;;12.50;7.70;;;;;;;25.35;48.58;100147.95;1973177;89;29426;-67
2022/05/11 05:32:23;;;;;;;11.90;7.33;;;;;;;25.69;46.84;100149.56;1972992;89;29244;-67
2022/05/11 05:35:26;;;;;;;12.13;7.30;;;;;;;25.98;46.27;100145.80;1943036;90;30829;-65
2022/05/11 05:38:28;;;;;;;14.83;7.45;;;;;;;26.42;45.48;100148.41;1943035;91;32829;-66
2022/05/11 05:41:30;;;;;;;18.73;8.25;;;;;;;26.72;44.79;100149.36;1950066;90;30534;-66
2022/05/11 05:44:32;;;;;;;14.33;7.40;;;;;;;26.87;44.20;100148.57;1973255;89;28203;-66
2022/05/11 05:47:40;;;;;;;12.47;7.80;;;;;;;26.90;43.60;100146.29;1973241;90;29931;-65
2022/05/11 05:50:42;;;;;;;10.85;7.28;;;;;;;26.99;43.15;100152.05;1973504;90;31052;-65
2022/05/11 05:53:46;;;;;;;14.38;7.35;;;;;;;27.06;42.40;100152.66;1972794;90;33864;-65
2022/05/11 05:56:48;;;;;;;17.20;7.60;;;;;;;27.10;42.42;100145.75;1960250;90;30261;-66
2022/05/11 05:59:51;;;;;;;13.45;7.42;;;;;;;27.47;41.71;100140.39;1979636;89;27617;-65
2022/05/11 06:02:56;;;;;;;19.50;7.33;;;;;;;27.99;41.45;100143.97;1979422;89;29327;-66
2022/05/11 06:05:59;;;;;;;9.40;7.22;;;;;;;28.52;40.52;100144.22;1979320;90;31086;-66
2022/05/11 06:09:03;;;;;;;11.38;6.83;;;;;;;28.86;40.27;100140.70;1979719;89;34925;-67
2022/05/11 06:12:12;;;;;;;13.53;6.50;;;;;;;29.25;39.66;100147.55;1979510;89;30183;-66
2022/05/11 06:15:15;;;;;;;13.48;6.28;;;;;;;30.14;39.20;100139.98;1979611;89;27704;-67
2022/05/11 06:18:17;;;;;;;14.70;6.08;;;;;;;30.94;38.31;100139.20;1979596;89;29327;-67
2022/05/11 06:21:19;;;;;;;11.85;6.12;;;;;;;31.07;37.44;100146.09;1979132;89;31951;-68
2022/05/11 06:24:22;;;;;;;13.50;5.90;;;;;;;30.96;37.05;100148.66;1979382;89;33828;-67
2022/05/11 06:27:23;;;;;;;16.25;6.05;;;;;;;30.92;36.82;100152.39;1918930;92;29364;-68
2022/05/11 06:30:27;;;;;;;14.43;5.35;;;;;;;31.41;36.61;100148.79;1979629;89;27724;-69
2022/05/11 06:33:29;;;;;;;15.95;5.92;;;;;;;33.14;35.21;100149.30;1979567;89;29677;-69
2022/05/11 06:36:30;;;;;;;14.20;5.67;;;;;;;33.14;35.21;100149.30;1979555;89;31048;-69
2022/05/11 06:39:34;;;;;;;14.13;5.42;;;;;;;33.91;34.25;100143.84;1918839;92;32975;-67
2022/05/11 06:42:37;;;;;;;11.10;4.83;;;;;;;34.05;33.52;100142.27;1968098;89;30452;-68
2022/05/11 06:45:39;;;;;;;12.58;4.62;;;;;;;34.47;33.04;100145.61;1979469;90;27643;-68
2022/05/11 06:48:40;;;;;;;8.43;4.47;;;;;;;34.69;32.39;100141.70;1979207;90;29955;-68
2022/05/11 06:51:42;;;;;;;8.28;4.25;;;;;;;34.82;31.84;100140.11;1888238;93;31469;-69
2022/05/11 07:01:25;;;;;;;7.45;4.33;;;;;;;34.86;30.07;100146.03;2011362;87;27714;-66
2022/05/11 07:04:27;;;;;;;11.12;4.08;;;;;;;34.66;29.91;100138.04;2024553;87;29967;-67
2022/05/11 07:07:29;;;;;;;9.03;4.78;;;;;;;34.47;29.52;100134.48;2024543;87;31206;-67
2022/05/11 07:10:33;;;;;;;7.85;4.37;;;;;;;34.38;29.32;100136.20;2019118;87;34209;-66
2022/05/11 07:13:36;;;;;;;6.53;4.30;;;;;;;34.33;29.48;100136.63;1988521;88;29928;-67
2022/05/11 07:16:38;;;;;;;6.50;4.70;;;;;;;34.24;29.16;100134.17;2011732;88;27669;-67
2022/05/11 07:19:43;;;;;;;8.58;4.80;;;;;;;34.11;28.84;100130.73;2012081;87;29942;-67
2022/05/11 07:22:46;;;;;;;9.80;4.78;;;;;;;34.02;29.20;100130.22;2024689;87;32305;-67
2022/05/11 07:25:47;;;;;;;7.77;4.67;;;;;;;33.89;28.77;100127.94;2025190;87;33356;-66
2022/05/11 07:28:49;;;;;;;9.60;4.50;;;;;;;33.82;28.90;100126.31;2024758;87;30547;-67
2022/05/11 07:31:51;;;;;;;7.87;4.50;;;;;;;33.98;28.72;100127.63;2014255;87;27727;-68
2022/05/11 07:34:54;;;;;;;10.30;4.22;;;;;;;34.39;28.44;100124.52;2011309;88;28468;-67
2022/05/11 07:37:56;;;;;;;6.80;3.80;;;;;;;34.90;27.97;100128.30;2011589;88;31127;-67
2022/05/11 07:40:59;;;;;;;8.60;4.12;;;;;;;35.12;27.77;100134.11;2017872;87;33759;-66
2022/05/11 07:44:00;;;;;;;5.00;4.30;;;;;;;35.06;27.09;100126.75;2024939;87;30278;-65
2022/05/11 07:47:03;;;;;;;11.10;4.92;;;;;;;34.79;27.07;100131.38;2025103;87;27638;-66
2022/05/11 07:50:08;;;;;;;10.80;4.63;;;;;;;34.58;27.50;100132.28;2022661;87;29541;-68
2022/05/11 07:53:10;;;;;;;9.78;4.10;;;;;;;34.53;27.46;100127.98;1972990;90;31688;-67
2022/05/11 08:02:54;;;;;;;4.92;3.87;;;;;;;34.19;26.87;100125.68;1911198;93;27632;-66
2022/05/11 08:05:58;;;;;;;6.83;4.47;;;;;;;33.96;26.68;100121.45;1917871;91;29079;-66
2022/05/11 08:09:00;;;;;;;9.80;4.47;;;;;;;33.95;26.99;100120.59;1940570;91;31102;-66
2022/05/11 08:12:04;;;;;;;10.45;4.70;;;;;;;34.27;27.10;100119.48;1940808;91;33954;-66
2022/05/11 08:15:07;;;;;;;9.03;4.35;;;;;;;34.60;26.97;100122.30;1940321;91;30157;-67
2022/05/11 08:18:09;;;;;;;12.05;5.15;;;;;;;34.86;26.37;100122.90;1940769;91;27632;-67
2022/05/11 08:21:10;;;;;;;5.35;4.10;;;;;;;34.98;26.12;100115.45;1965669;90;28732;-68
2022/05/11 08:24:13;;;;;;;5.58;4.28;;;;;;;35.07;25.90;100120.09;1940566;91;30940;-67
2022/05/11 08:27:23;;;;;;;6.37;4.25;;;;;;;35.14;25.94;100118.02;1940282;91;34234;-67
2022/05/11 08:33:50;;;;;;;6.95;3.95;;;;;;;35.34;25.33;100110.64;1940146;91;27671;-68
2022/05/11 08:36:53;;;;;;;5.00;4.10;;;;;;;35.27;25.44;100113.56;1940335;91;29536;-66
2022/05/11 08:39:55;;;;;;;4.72;4.22;;;;;;;35.30;25.31;100112.25;1965682;90;31092;-67
2022/05/11 08:43:02;;;;;;;4.87;4.20;;;;;;;35.33;25.09;100114.52;1939968;91;34196;-67
2022/05/11 08:46:38;;;;;;;5.92;4.47;;;;;;;35.36;24.79;100107.63;1940315;91;29365;-67
2022/05/11 08:50:22;;;;;;;5.65;4.97;;;;;;;35.35;24.77;100110.11;1963467;90;27878;-67
2022/05/11 08:53:37;;;;;;;5.15;4.22;;;;;;;35.40;24.94;100104.66;2029443;87;28716;-67
2022/05/11 08:56:40;;;;;;;6.70;4.47;;;;;;;35.40;24.77;100104.09;1996395;89;32028;-68
2022/05/11 08:59:43;;;;;;;7.05;4.08;;;;;;;35.19;24.52;100100.56;2029751;87;33857;-67
2022/05/11 09:02:54;;;;;;;5.25;4.17;;;;;;;34.99;24.65;100094.87;1996226;89;30037;-67
2022/05/11 09:06:01;;;;;;;6.03;4.45;;;;;;;34.79;24.55;100094.66;2029852;87;27716;-67
2022/05/11 09:09:04;;;;;;;5.92;4.37;;;;;;;34.66;25.04;100099.92;1996148;89;29556;-67
2022/05/11 09:12:10;;;;;;;5.62;4.50;;;;;;;34.55;24.77;100096.59;2030091;87;31285;-67
2022/05/11 09:15:13;;;;;;;11.38;4.28;;;;;;;34.39;25.10;100096.70;2038238;87;32456;-67
2022/05/11 09:18:15;;;;;;;5.87;4.58;;;;;;;34.23;25.06;100081.59;2053712;86;29327;-68
2022/05/11 09:21:32;;;;;;;7.10;4.50;;;;;;;34.19;25.47;100085.92;2039016;86;27773;-67
2022/05/11 09:24:57;;;;;;;6.17;4.87;;;;;;;34.19;25.11;100078.97;2020458;88;29489;-68
2022/05/11 09:28:31;;;;;;;6.92;4.33;;;;;;;34.05;25.31;100081.10;2020359;88;31068;-67
2022/05/11 09:31:33;;;;;;;9.38;3.98;;;;;;;33.91;25.32;100081.31;2022540;86;33343;-67
2022/05/11 09:34:35;;;;;;;10.18;4.28;;;;;;;33.94;25.67;100081.37;2020572;88;29416;-66
2022/05/11 09:37:37;;;;;;;4.85;4.00;;;;;;;33.94;25.51;100081.37;2020543;88;27980;-65
2022/05/11 09:41:12;;;;;;;8.18;4.10;;;;;;;33.91;25.42;100081.87;2025879;86;29575;-66
2022/05/11 09:44:27;;;;;;;8.05;4.30;;;;;;;33.76;25.26;100069.75;2053970;86;31739;-67
2022/05/11 09:47:36;;;;;;;6.85;3.85;;;;;;;33.62;25.66;100071.86;2053568;86;33782;-67
2022/05/11 09:50:38;;;;;;;4.42;4.03;;;;;;;33.44;25.56;100065.80;2048478;86;30141;-67
2022/05/11 09:53:54;;;;;;;6.13;4.07;;;;;;;33.42;25.63;100057.72;2020826;88;27710;-67
2022/05/11 09:57:14;;;;;;;4.92;3.90;;;;;;;33.51;25.76;100060.16;2019202;88;29086;-67
2022/05/11 10:00:26;;;;;;;5.08;3.75;;;;;;;33.55;25.38;100053.89;2021189;86;31225;-68
2022/05/11 10:03:30;;;;;;;3.42;2.90;;;;;;;33.75;25.38;100057.80;2053413;86;34175;-66
2022/05/11 10:06:48;;;;;;;5.05;3.65;;;;;;;33.98;25.68;100046.46;2053681;86;28789;-67
2022/05/11 10:09:55;;;;;;;8.38;3.85;;;;;;;34.27;25.61;100043.02;2053838;86;27683;-67
2022/05/11 10:13:19;;;;;;;5.45;3.27;;;;;;;34.54;25.33;100050.39;2023779;86;28652;-67
2022/05/11 10:23:40;;;;;;;4.85;3.52;;;;;;;34.53;24.20;100052.86;2020426;88;29591;-67
2022/05/11 10:26:59;;;;;;;8.00;3.10;;;;;;;34.38;24.35;100058.86;1904330;92;27731;-68
2022/05/11 10:30:25;;;;;;;9.53;3.85;;;;;;;34.23;24.19;100049.61;1905161;93;29527;-68
2022/05/11 10:33:51;;;;;;;8.15;3.58;;;;;;;34.23;24.35;100057.39;1899071;93;31131;-67
2022/05/11 10:37:07;;;;;;;5.10;3.35;;;;;;;34.24;24.35;100056.31;1882200;94;34148;-68
2022/05/11 10:40:23;;;;;;;9.40;3.77;;;;;;;34.19;24.36;100051.16;1936550;91;29277;-67
2022/05/11 10:44:02;;;;;;;6.87;3.98;;;;;;;34.21;24.45;100046.22;1910749;91;27835;-67
2022/05/11 10:47:41;;;;;;;5.97;4.05;;;;;;;34.15;24.01;100049.41;1938623;91;29910;-66
2022/05/11 10:51:10;;;;;;;8.85;4.67;;;;;;;34.04;24.26;100046.91;1881724;94;31514;-67
2022/05/11 10:54:24;;;;;;;5.72;3.75;;;;;;;34.02;23.98;100041.27;1871907;94;32789;-67
2022/05/11 10:58:07;;;;;;;10.67;4.37;;;;;;;33.93;24.40;100040.77;1874745;94;29392;-65
2022/05/11 11:01:15;;;;;;;7.47;3.85;;;;;;;33.88;24.23;100037.84;1894631;91;27877;-67
2022/05/11 11:04:25;;;;;;;7.62;4.30;;;;;;;33.79;24.54;100022.05;1970479;90;28731;-66
2022/05/11 11:07:45;;;;;;;6.10;3.90;;;;;;;33.76;24.47;100027.52;1970619;90;31119;-67
2022/05/11 11:11:07;;;;;;;4.55;4.00;;;;;;;33.67;24.54;100028.95;1969360;88;33387;-66
2022/05/11 11:14:11;;;;;;;8.53;4.70;;;;;;;33.63;24.50;100031.36;1968806;90;30582;-67
2022/05/11 11:17:21;;;;;;;5.72;4.20;;;;;;;33.60;24.98;100025.41;1969288;90;27695;-66
2022/05/11 11:20:24;;;;;;;4.33;3.83;;;;;;;33.65;25.09;100024.72;2000747;88;28675;-66
2022/05/11 11:23:34;;;;;;;4.62;4.22;;;;;;;33.60;24.71;100020.72;2002392;88;31991;-67
2022/05/11 11:26:56;;;;;;;5.00;4.05;;;;;;;33.42;25.00;100023.01;2002286;88;33360;-66
2022/05/11 11:30:16;;;;;;;6.85;4.53;;;;;;;33.20;25.10;100021.22;1975978;88;29326;-66
2022/05/11 11:33:23;;;;;;;7.25;4.33;;;;;;;32.98;25.20;100016.16;1878813;94;27797;-67
2022/05/11 11:36:34;;;;;;;5.20;4.00;;;;;;;33.00;25.69;100010.37;1886907;92;29536;-67
2022/05/11 11:39:57;;;;;;;12.53;4.55;;;;;;;32.91;25.45;100009.00;1896888;93;31039;-67
2022/05/11 11:43:38;;;;;;;6.62;4.22;;;;;;;32.81;25.73;100003.95;1907234;93;32448;-67
2022/05/11 11:46:35;;;;;;;7.08;4.67;;;;;;;32.91;26.06;100002.89;1937674;90;27736;-67
2022/05/11 11:49:41;;;;;;;4.42;3.62;;;;;;;33.02;25.80;100001.27;1954736;90;27818;-66
2022/05/11 11:52:46;;;;;;;4.25;3.87;;;;;;;33.06;25.80;99998.88;2003754;88;29539;-66
2022/05/11 11:55:49;;;;;;;8.35;4.40;;;;;;;33.14;25.75;99990.24;2004032;88;31809;-67
2022/05/11 11:59:17;;;;;;;6.53;4.40;;;;;;;33.22;25.81;99986.30;1997911;88;33839;-67
2022/05/11 12:02:36;;;;;;;4.72;4.25;;;;;;;33.26;25.61;99989.75;1931217;90;30047;-66
2022/05/11 12:05:47;;;;;;;5.35;3.80;;;;;;;33.20;25.56;99984.30;1936506;91;27802;-66
2022/05/11 12:15:38;;;;;;;9.98;4.80;;;;;;;33.02;25.37;99977.13;2029331;87;33927;-66
2022/05/11 12:18:41;;;;;;;;;;;;;;;32.81;25.59;99982.62;2050194;85;29361;-65
2022/05/11 12:21:58;;;;;;;4.40;3.70;;;;;;;32.70;25.65;99979.20;2072709;85;27750;-65
2022/05/11 12:25:20;;;;;;;7.85;4.15;;;;;;;32.51;25.63;99982.52;2073042;85;29380;-66
2022/05/11 12:28:30;;;;;;;6.30;3.65;;;;;;;32.34;25.89;99973.93;2066860;85;31704;-67
2022/05/11 12:31:35;;;;;;;5.87;4.22;;;;;;;32.11;26.12;99965.16;2039087;87;32972;-67
2022/05/11 12:34:44;;;;;;;5.08;3.72;;;;;;;31.91;26.23;99961.19;2039167;87;28903;-67
2022/05/11 12:38:08;;;;;;;6.80;4.58;;;;;;;31.70;26.60;99958.23;2048556;85;28213;-66
2022/05/11 12:41:19;;;;;;;5.03;3.20;;;;;;;31.50;26.64;99955.06;2073032;85;28713;-67
2022/05/11 12:44:33;;;;;;;5.47;4.30;;;;;;;31.24;27.00;99954.69;2033462;87;31121;-67
2022/05/11 12:47:41;;;;;;;9.38;4.83;;;;;;;31.01;27.21;99951.89;2020550;87;34228;-67
2022/05/11 12:51:04;;;;;;;6.40;3.90;;;;;;;30.82;27.37;99951.43;2007375;88;30114;-67
2022/05/11 12:54:09;;;;;;;8.70;4.00;;;;;;;30.66;27.70;99948.08;2006538;88;27695;-66
2022/05/11 12:57:17;;;;;;;4.15;3.77;;;;;;;30.46;27.64;99944.80;2026355;87;28669;-67
2022/05/11 13:00:20;;;;;;;7.58;4.08;;;;;;;30.31;27.96;99936.78;2041087;87;31818;-64
2022/05/11 13:03:38;;;;;;;4.58;3.35;;;;;;;30.20;28.17;99930.50;2040957;87;34017;-64
2022/05/11 13:06:41;;;;;;;4.53;4.00;;;;;;;30.11;28.25;99922.13;2014807;88;29341;-66
2022/05/11 13:09:48;;;;;;;9.63;4.08;;;;;;;29.95;28.30;99928.42;2014738;88;27642;-66
2022/05/11 13:12:55;;;;;;;6.50;4.25;;;;;;;29.85;28.54;99919.70;2076562;85;29506;-65
2022/05/11 13:16:05;;;;;;;8.50;4.58;;;;;;;29.76;28.66;99919.57;2075989;85;31989;-66
2022/05/11 13:19:15;;;;;;;5.58;4.42;;;;;;;29.67;28.96;99918.93;2072853;85;33453;-65
2022/05/11 13:22:24;;;;;;;4.08;3.60;;;;;;;29.51;28.92;99913.30;2075936;84;30744;-66
2022/05/11 13:25:52;;;;;;;4.45;3.87;;;;;;;29.43;29.02;99903.32;2043032;87;27681;-66
2022/05/11 13:29:01;;;;;;;9.48;5.60;;;;;;;29.37;29.39;99913.27;2042882;86;28912;-66
2022/05/11 13:32:10;;;;;;;12.18;4.20;;;;;;;29.26;29.37;99909.20;2042610;86;30994;-65
2022/05/11 13:35:26;;;;;;;6.08;3.50;;;;;;;29.15;29.39;99907.03;2074457;85;34073;-66
2022/05/11 13:38:29;;;;;;;18.90;4.75;;;;;;;29.06;29.29;99896.72;2076997;85;29327;-66
2022/05/11 13:41:37;;;;;;;16.62;4.22;;;;;;;29.01;29.36;99895.14;2076849;85;27557;-66
2022/05/11 13:44:43;;;;;;;9.65;3.70;;;;;;;28.95;29.57;99891.81;2071595;85;29048;-66
2022/05/11 13:51:25;;;;;;;34.48;5.25;;;;;;;28.85;29.79;99878.42;2080767;85;34068;-66
2022/05/11 13:54:33;;;;;;;18.42;5.53;;;;;;;28.87;29.90;99874.09;2037568;86;29336;-66
2022/05/11 13:57:38;;;;;;;15.08;5.70;;;;;;;28.88;29.79;99866.11;2037721;86;27681;-65
2022/05/11 14:00:40;;;;;;;7.92;4.00;;;;;;;28.87;29.92;99865.28;2037586;87;28657;-65
2022/05/11 14:03:52;;;;;;;10.70;4.30;;;;;;;28.86;29.69;99866.88;2068287;86;32003;-66
2022/05/11 14:07:07;;;;;;;6.65;4.83;;;;;;;28.83;29.80;99861.77;2071251;85;32955;-65
2022/05/11 14:10:09;;;;;;;6.20;4.78;;;;;;;28.83;29.99;99856.27;2071529;85;30459;-65
2022/05/11 14:13:14;;;;;;;6.30;4.58;;;;;;;28.79;29.94;99854.45;2045713;86;27623;-66
2022/05/11 14:16:28;;;;;;;8.55;6.62;;;;;;;28.72;30.03;99847.48;2037144;86;29628;-65
2022/05/11 14:19:31;;;;;;;7.33;4.83;;;;;;;28.69;29.95;99840.16;2037377;86;30875;-65
2022/05/11 14:22:38;;;;;;;5.05;4.60;;;;;;;28.62;30.22;99838.25;2054917;86;33759;-66
2022/05/11 14:25:40;;;;;;;5.67;3.90;;;;;;;28.58;30.28;99838.84;2071124;85;30145;-66
2022/05/11 14:28:42;;;;;;;6.28;4.70;;;;;;;28.57;30.32;99835.77;2059846;85;27770;-66
2022/05/11 14:31:45;;;;;;;10.20;4.55;;;;;;;28.52;30.46;99828.13;2050475;86;28733;-66
2022/05/11 14:34:47;;;;;;;6.20;4.42;;;;;;;28.49;30.34;99832.16;2015394;87;31431;-66
2022/05/11 14:37:50;;;;;;;9.40;5.40;;;;;;;28.48;30.48;99818.05;2075293;84;33188;-65
2022/05/11 14:40:53;;;;;;;6.08;4.30;;;;;;;28.54;30.89;99808.10;2105813;84;30034;-65
2022/05/11 14:43:59;;;;;;;5.35;3.83;;;;;;;28.54;30.89;99808.10;2106640;83;27718;-66
2022/05/11 14:47:00;;;;;;;8.53;4.22;;;;;;;28.58;30.57;99821.80;2105558;83;29369;-66
2022/05/11 14:50:04;;;;;;;4.58;3.95;;;;;;;28.60;30.49;99814.17;2086063;83;31914;-65
2022/05/11 14:53:06;;;;;;;4.78;4.33;;;;;;;28.62;30.51;99813.45;2071144;86;32970;-67
2022/05/11 14:56:09;;;;;;;4.78;3.98;;;;;;;28.65;30.51;99811.63;2056918;86;30204;-66
2022/05/11 15:02:54;;;;;;;5.33;3.83;;;;;;;28.75;30.64;99800.78;2068573;86;29931;-65
2022/05/11 15:05:57;;;;;;;7.05;4.55;;;;;;;28.74;30.64;99797.70;1963501;90;30990;-67
2022/05/11 15:08:59;;;;;;;5.47;4.97;;;;;;;28.65;30.53;99795.63;1964057;90;33008;-65
2022/05/11 15:15:25;;;;;;;7.70;4.03;;;;;;;28.58;30.56;99783.73;1963846;90;27789;-65
2022/05/11 15:18:26;;;;;;;;;;;;;;;28.53;30.39;99786.28;1976577;90;29506;-66
2022/05/11 15:21:28;;;;;;;10.23;3.87;;;;;;;28.55;30.45;99782.25;1973986;90;32358;-66
2022/05/11 15:24:31;;;;;;;8.58;4.62;;;;;;;28.47;30.28;99783.80;1973755;90;33771;-65